createdAt,value
2022-12-24T00:01:03.069Z,3.53
2022-12-24T00:03:30.315Z,3.90
2022-12-24T00:05:57.387Z,5.03
2022-12-24T00:08:24.627Z,5.27
2022-12-24T00:10:53.212Z,4.17
2022-12-24T00:13:21.343Z,3.50
2022-12-24T00:15:48.756Z,3.90
2022-12-24T00:18:16.318Z,4.77
2022-12-24T00:20:47.679Z,4.40
2022-12-24T00:23:15.827Z,4.60
2022-12-24T00:25:42.600Z,4.50
2022-12-24T00:28:09.700Z,4.83
2022-12-24T00:30:39.282Z,4.23
2022-12-24T00:33:06.402Z,3.90
2022-12-24T00:35:37.915Z,4.80
2022-12-24T00:38:04.893Z,4.50
2022-12-24T00:40:32.266Z,4.77
2022-12-24T00:42:59.298Z,4.53
2022-12-24T00:45:27.979Z,4.57
2022-12-24T00:47:54.904Z,4.43
2022-12-24T00:50:21.694Z,5.03
2022-12-24T00:52:48.885Z,4.87
2022-12-24T00:55:15.609Z,5.13
2022-12-24T00:57:42.457Z,5.00
2022-12-24T01:00:09.926Z,4.60
2022-12-24T01:02:39.656Z,4.27
2022-12-24T01:05:14.571Z,4.10
2022-12-24T01:07:48.218Z,3.87
2022-12-24T01:10:19.351Z,3.80
2022-12-24T01:12:47.168Z,4.47
2022-12-24T01:15:14.670Z,3.73
2022-12-24T01:17:41.582Z,3.90
2022-12-24T01:20:14.398Z,4.10
2022-12-24T01:22:41.120Z,4.50
2022-12-24T01:25:08.245Z,3.83
2022-12-24T01:27:35.046Z,4.53
2022-12-24T01:30:01.842Z,4.07
2022-12-24T01:32:28.833Z,3.83
2022-12-24T01:34:55.659Z,4.63
2022-12-24T01:37:22.484Z,4.17
2022-12-24T01:39:49.225Z,4.67
2022-12-24T01:42:40.470Z,4.60
2022-12-24T01:45:41.689Z,3.23
2022-12-24T01:48:18.057Z,3.07
2022-12-24T01:50:45.145Z,3.37
2022-12-24T01:53:13.627Z,2.87
2022-12-24T01:55:41.176Z,2.70
2022-12-24T01:58:09.918Z,2.30
2022-12-24T02:00:37.592Z,2.50
2022-12-24T02:03:04.924Z,2.37
2022-12-24T02:05:51.873Z,1.87
2022-12-24T02:08:19.024Z,1.93
2022-12-24T02:10:46.929Z,2.47
2022-12-24T02:13:15.599Z,2.10
2022-12-24T02:16:10.367Z,2.43
2022-12-24T02:18:46.591Z,2.63
2022-12-24T02:21:37.823Z,3.67
2022-12-24T02:24:33.163Z,3.50
2022-12-24T02:27:11.015Z,3.47
2022-12-24T02:30:05.061Z,3.70
2022-12-24T02:32:56.914Z,3.67
2022-12-24T02:35:31.283Z,4.03
2022-12-24T02:38:03.226Z,3.63
2022-12-24T02:40:38.580Z,4.27
2022-12-24T02:43:11.709Z,4.57
2022-12-24T02:45:40.150Z,3.90
2022-12-24T02:48:07.073Z,3.77
2022-12-24T02:50:33.944Z,4.00
2022-12-24T02:53:00.775Z,3.50
2022-12-24T02:55:47.750Z,5.00
2022-12-24T02:59:12.146Z,3.33
2022-12-24T03:01:45.063Z,3.37
2022-12-24T03:04:39.518Z,3.60
2022-12-24T03:07:09.557Z,3.40
2022-12-24T03:10:02.757Z,3.47
2022-12-24T03:12:39.919Z,3.67
2022-12-24T03:15:09.283Z,3.53
2022-12-24T03:17:37.623Z,4.37
2022-12-24T03:20:06.470Z,4.40
2022-12-24T03:22:34.699Z,3.90
2022-12-24T03:25:01.619Z,3.13
2022-12-24T03:27:29.716Z,3.60
2022-12-24T03:29:56.851Z,4.23
2022-12-24T03:32:25.943Z,3.37
2022-12-24T03:34:52.739Z,4.00
2022-12-24T03:37:19.726Z,3.20
2022-12-24T03:39:46.522Z,3.33
2022-12-24T03:42:13.558Z,3.77
2022-12-24T03:44:40.366Z,4.13
2022-12-24T03:47:08.493Z,3.70
2022-12-24T03:49:35.407Z,3.93
2022-12-24T03:52:02.238Z,3.83
2022-12-24T03:54:29.112Z,3.57
2022-12-24T03:56:55.810Z,4.43
2022-12-24T03:59:22.446Z,4.00
2022-12-24T04:01:49.504Z,4.30
2022-12-24T04:04:16.546Z,3.30
2022-12-24T04:06:43.355Z,3.77
2022-12-24T04:09:10.027Z,4.17
2022-12-24T04:11:36.874Z,4.40
2022-12-24T04:14:03.781Z,3.90
2022-12-24T04:16:30.509Z,3.97
2022-12-24T04:18:57.219Z,4.30
2022-12-24T04:21:24.899Z,4.93
2022-12-24T04:23:52.058Z,4.40
2022-12-24T04:26:18.994Z,4.37
2022-12-24T04:28:45.685Z,4.87
2022-12-24T04:31:15.096Z,4.90
2022-12-24T04:33:42.062Z,6.00
2022-12-24T04:36:12.269Z,4.00
2022-12-24T04:38:39.346Z,5.17
2022-12-24T04:41:10.740Z,4.43
2022-12-24T04:43:37.839Z,4.93
2022-12-24T04:46:16.017Z,4.30
2022-12-24T04:48:42.882Z,4.43
2022-12-24T04:51:10.323Z,5.13
2022-12-24T04:53:38.562Z,4.50
2022-12-24T04:56:09.344Z,4.10
2022-12-24T04:58:36.283Z,4.30
2022-12-24T05:01:08.342Z,4.10
2022-12-24T05:03:35.965Z,4.63
2022-12-24T05:06:07.609Z,5.23
2022-12-24T05:08:35.180Z,4.87
2022-12-24T05:11:02.768Z,5.40
2022-12-24T05:13:37.624Z,3.83
2022-12-24T05:16:09.764Z,4.00
2022-12-24T05:18:36.774Z,4.63
2022-12-24T05:21:03.670Z,4.23
2022-12-24T05:23:49.300Z,4.53
2022-12-24T05:26:37.437Z,4.23
2022-12-24T05:29:05.602Z,4.10
2022-12-24T05:31:33.591Z,4.90
2022-12-24T05:34:01.464Z,4.03
2022-12-24T05:36:28.515Z,5.77
2022-12-24T05:38:55.586Z,4.80
2022-12-24T05:41:22.670Z,3.87
2022-12-24T05:43:49.648Z,4.27
2022-12-24T05:46:19.176Z,5.43
2022-12-24T05:48:46.706Z,4.63
2022-12-24T05:51:15.368Z,4.77
2022-12-24T05:53:42.174Z,4.70
2022-12-24T05:56:11.393Z,4.30
2022-12-24T05:58:41.674Z,4.03
2022-12-24T06:01:09.201Z,4.10
2022-12-24T06:03:36.199Z,4.60
2022-12-24T06:06:11.911Z,4.17
2022-12-24T06:08:39.550Z,5.00
2022-12-24T06:11:09.560Z,4.67
2022-12-24T06:13:37.242Z,4.73
2022-12-24T06:16:06.402Z,5.40
2022-12-24T06:18:34.703Z,3.97
2022-12-24T06:21:01.513Z,4.60
2022-12-24T06:23:33.781Z,4.63
2022-12-24T06:26:01.177Z,4.30
2022-12-24T06:28:29.356Z,5.07
2022-12-24T06:31:02.393Z,4.73
2022-12-24T06:33:30.207Z,3.77
2022-12-24T06:35:56.902Z,5.00
2022-12-24T06:38:23.633Z,4.87
2022-12-24T06:40:50.428Z,5.37
2022-12-24T06:43:17.329Z,5.37
2022-12-24T06:45:48.573Z,4.10
2022-12-24T06:48:15.826Z,5.37
2022-12-24T06:50:43.134Z,5.40
2022-12-24T06:53:10.116Z,4.40
2022-12-24T06:55:36.869Z,5.03
2022-12-24T06:58:04.273Z,5.07
2022-12-24T07:00:31.043Z,4.70
2022-12-24T07:02:58.335Z,4.60
2022-12-24T07:05:25.298Z,4.53
2022-12-24T07:07:52.061Z,4.93
2022-12-24T07:10:19.745Z,5.27
2022-12-24T07:12:47.656Z,4.43
2022-12-24T07:15:14.477Z,5.10
2022-12-24T07:17:45.407Z,5.10
2022-12-24T07:20:15.050Z,5.00
2022-12-24T07:22:42.841Z,4.60
2022-12-24T07:25:10.284Z,4.43
2022-12-24T07:27:37.298Z,4.20
2022-12-24T07:30:05.003Z,4.40
2022-12-24T07:32:32.087Z,4.37
2022-12-24T07:34:58.935Z,4.87
2022-12-24T07:37:25.780Z,4.77
2022-12-24T07:39:52.912Z,4.67
2022-12-24T07:42:20.581Z,3.67
2022-12-24T07:44:47.587Z,5.57
2022-12-24T07:47:14.364Z,4.53
2022-12-24T07:49:41.192Z,4.43
2022-12-24T07:52:08.287Z,4.37
2022-12-24T07:54:35.271Z,4.00
2022-12-24T07:57:02.120Z,4.60
2022-12-24T07:59:28.867Z,4.93
2022-12-24T08:01:56.042Z,4.80
2022-12-24T08:04:22.792Z,5.67
2022-12-24T08:06:49.476Z,4.50
2022-12-24T08:09:16.230Z,4.03
2022-12-24T08:11:48.123Z,4.30
2022-12-24T08:14:18.245Z,4.40
2022-12-24T08:16:44.968Z,4.63
2022-12-24T08:19:12.009Z,5.50
2022-12-24T08:21:38.916Z,4.93
2022-12-24T08:24:06.432Z,6.23
2022-12-24T08:26:33.256Z,4.73
2022-12-24T08:29:00.048Z,5.27
2022-12-24T08:31:26.864Z,4.33
2022-12-24T08:33:53.717Z,4.13
2022-12-24T08:36:20.468Z,4.87
2022-12-24T08:38:47.291Z,4.87
2022-12-24T08:41:13.965Z,5.33
2022-12-24T08:43:40.839Z,5.73
2022-12-24T08:46:07.745Z,5.90
2022-12-24T08:48:35.292Z,5.17
2022-12-24T08:51:07.677Z,6.00
2022-12-24T08:53:34.833Z,4.60
2022-12-24T08:56:07.395Z,4.23
2022-12-24T08:58:34.418Z,5.53
2022-12-24T09:01:01.736Z,4.40
2022-12-24T09:03:29.257Z,5.97
2022-12-24T09:05:56.274Z,5.13
2022-12-24T09:08:23.127Z,5.67
2022-12-24T09:10:49.861Z,4.67
2022-12-24T09:13:16.669Z,4.63
2022-12-24T09:15:43.479Z,5.23
2022-12-24T09:18:10.872Z,4.47
2022-12-24T09:20:41.485Z,4.97
2022-12-24T09:23:11.021Z,4.33
2022-12-24T09:25:45.319Z,5.10
2022-12-24T09:28:12.156Z,4.83
2022-12-24T09:30:38.792Z,5.30
2022-12-24T09:33:05.537Z,4.83
2022-12-24T09:35:32.299Z,4.83
2022-12-24T09:38:07.871Z,5.23
2022-12-24T09:40:39.934Z,5.07
2022-12-24T09:43:17.820Z,4.97
2022-12-24T09:45:54.183Z,5.23
2022-12-24T09:48:25.365Z,5.97
2022-12-24T09:50:55.451Z,4.80
2022-12-24T09:53:45.874Z,4.97
2022-12-24T09:56:31.333Z,4.17
2022-12-24T09:59:02.840Z,5.10
2022-12-24T10:01:31.378Z,5.03
2022-12-24T10:04:19.479Z,5.43
2022-12-24T10:07:11.288Z,6.27
2022-12-24T10:09:52.956Z,5.30
2022-12-24T10:12:47.738Z,5.00
2022-12-24T10:15:22.423Z,5.83
2022-12-24T10:17:52.311Z,5.27
2022-12-24T10:20:37.680Z,4.47
2022-12-24T10:23:11.139Z,5.93
2022-12-24T10:26:26.300Z,4.33
2022-12-24T10:29:22.355Z,4.97
2022-12-24T10:31:58.000Z,5.10
2022-12-24T10:34:28.920Z,4.73
2022-12-24T10:36:56.385Z,5.00
2022-12-24T10:39:25.434Z,4.80
2022-12-24T10:41:55.325Z,4.50
2022-12-24T10:44:24.935Z,4.27
2022-12-24T10:46:51.698Z,4.93
2022-12-24T10:49:45.169Z,4.50
2022-12-24T10:52:15.285Z,4.00
2022-12-24T10:55:11.450Z,4.63
2022-12-24T10:57:39.080Z,4.10
2022-12-24T11:00:07.882Z,5.87
2022-12-24T11:02:37.381Z,3.50
2022-12-24T11:05:07.773Z,4.17
2022-12-24T11:07:34.768Z,4.83
2022-12-24T11:10:05.584Z,5.70
2022-12-24T11:12:38.227Z,8.37
2022-12-24T11:15:07.077Z,10.37
2022-12-24T11:17:34.211Z,4.67
2022-12-24T11:20:03.488Z,5.97
2022-12-24T11:22:31.726Z,5.50
2022-12-24T11:25:00.466Z,5.20
2022-12-24T11:27:33.724Z,4.13
2022-12-24T11:30:33.322Z,4.20
2022-12-24T11:33:00.528Z,4.47
2022-12-24T11:35:28.924Z,4.30
2022-12-24T11:38:01.624Z,5.80
2022-12-24T11:40:40.716Z,4.87
2022-12-24T11:43:15.920Z,5.00
2022-12-24T11:45:49.888Z,4.83
2022-12-24T11:48:33.904Z,5.90
2022-12-24T11:51:03.112Z,5.87
2022-12-24T11:53:47.885Z,5.43
2022-12-24T11:56:33.105Z,4.77
2022-12-24T11:59:10.422Z,5.47
2022-12-24T12:01:45.147Z,4.60
2022-12-24T12:04:22.220Z,5.07
2022-12-24T12:06:56.355Z,6.20
2022-12-24T12:09:44.566Z,4.70
2022-12-24T12:12:19.582Z,4.00
2022-12-24T12:14:53.659Z,5.17
2022-12-24T12:17:35.898Z,4.70
2022-12-24T12:20:14.757Z,5.27
2022-12-24T12:23:04.142Z,4.20
2022-12-24T12:25:40.027Z,4.43
2022-12-24T12:28:22.471Z,5.53
2022-12-24T12:31:11.915Z,6.07
2022-12-24T12:34:17.164Z,4.53
2022-12-24T12:36:53.582Z,4.87
2022-12-24T12:39:20.412Z,5.70
2022-12-24T12:42:02.588Z,4.17
2022-12-24T12:44:45.491Z,4.50
2022-12-24T12:47:51.362Z,4.77
2022-12-24T12:50:33.167Z,3.97
2022-12-24T12:53:15.141Z,4.73
2022-12-24T12:56:00.695Z,3.57
2022-12-24T12:58:44.834Z,4.53
2022-12-24T13:01:32.075Z,3.97
2022-12-24T13:04:24.613Z,4.73
2022-12-24T13:07:24.036Z,5.47
2022-12-24T13:10:20.157Z,3.63
2022-12-24T13:13:20.433Z,4.20
2022-12-24T13:16:15.253Z,4.10
2022-12-24T13:19:11.547Z,4.70
2022-12-24T13:21:43.181Z,4.47
2022-12-24T13:24:26.202Z,3.83
2022-12-24T13:27:07.747Z,4.50
2022-12-24T13:29:43.671Z,4.90
2022-12-24T13:32:22.862Z,4.73
2022-12-24T13:34:56.133Z,3.77
2022-12-24T13:37:32.418Z,4.30
2022-12-24T13:40:15.836Z,3.83
2022-12-24T13:42:59.424Z,4.27
2022-12-24T13:45:29.069Z,3.57
2022-12-24T13:48:02.032Z,3.87
2022-12-24T13:50:50.220Z,4.00
2022-12-24T13:53:26.595Z,4.13
2022-12-24T13:55:59.993Z,5.03
2022-12-24T13:58:28.407Z,4.20
2022-12-24T14:01:03.232Z,4.67
2022-12-24T14:03:33.829Z,4.00
2022-12-24T14:06:13.007Z,4.27
2022-12-24T14:08:47.032Z,4.53
2022-12-24T14:11:22.428Z,3.67
2022-12-24T14:13:49.223Z,4.60
2022-12-24T14:16:18.936Z,4.30
2022-12-24T14:18:50.772Z,4.07
2022-12-24T14:21:22.825Z,4.63
2022-12-24T14:24:02.959Z,4.53
2022-12-24T14:26:38.045Z,3.67
2022-12-24T14:29:12.046Z,4.07
2022-12-24T14:31:38.910Z,4.10
2022-12-24T14:34:13.127Z,3.77
2022-12-24T14:36:43.494Z,4.63
2022-12-24T14:39:15.198Z,4.27
2022-12-24T14:41:51.072Z,4.53
2022-12-24T14:44:35.419Z,4.43
2022-12-24T14:47:24.577Z,4.10
2022-12-24T14:50:16.228Z,4.33
2022-12-24T14:53:06.215Z,3.80
2022-12-24T14:55:40.803Z,4.23
2022-12-24T14:58:33.641Z,4.70
2022-12-24T15:01:04.333Z,4.00
2022-12-24T15:03:33.207Z,4.47
2022-12-24T15:06:03.104Z,4.67
2022-12-24T15:08:38.196Z,5.60
2022-12-24T15:11:07.970Z,4.00
2022-12-24T15:13:37.863Z,3.77
2022-12-24T15:16:15.894Z,3.77
2022-12-24T15:18:49.444Z,4.27
2022-12-24T15:21:37.791Z,3.83
2022-12-24T15:24:04.937Z,4.90
2022-12-24T15:26:36.601Z,4.37
2022-12-24T15:29:17.473Z,3.80
2022-12-24T15:31:44.356Z,4.00
2022-12-24T15:34:35.331Z,4.50
2022-12-24T15:37:12.619Z,5.40
2022-12-24T15:39:40.260Z,6.03
2022-12-24T15:42:15.119Z,4.50
2022-12-24T15:44:47.537Z,4.73
2022-12-24T15:47:18.098Z,4.90
2022-12-24T15:49:49.034Z,4.73
2022-12-24T15:52:18.217Z,4.50
2022-12-24T15:54:52.330Z,4.87
2022-12-24T15:57:27.119Z,4.80
2022-12-24T15:59:58.236Z,4.20
2022-12-24T16:02:25.217Z,5.13
2022-12-24T16:04:52.553Z,4.70
2022-12-24T16:07:26.797Z,6.20
2022-12-24T16:10:13.695Z,4.87
2022-12-24T16:12:41.031Z,5.37
2022-12-24T16:15:14.516Z,5.20
2022-12-24T16:17:41.540Z,5.77
2022-12-24T16:20:18.121Z,6.17
2022-12-24T16:22:46.705Z,6.33
2022-12-24T16:25:28.673Z,7.17
2022-12-24T16:28:00.117Z,7.27
2022-12-24T16:30:27.634Z,6.30
2022-12-24T16:32:54.629Z,5.60
2022-12-24T16:35:26.962Z,5.30
2022-12-24T16:37:54.848Z,5.50
2022-12-24T16:40:26.898Z,5.17
2022-12-24T16:43:14.601Z,6.50
2022-12-24T16:45:42.540Z,7.00
2022-12-24T16:48:11.382Z,6.90
2022-12-24T16:50:38.159Z,6.67
2022-12-24T16:53:05.047Z,6.30
2022-12-24T16:55:32.947Z,6.03
2022-12-24T16:57:59.947Z,5.97
2022-12-24T17:00:26.862Z,5.33
2022-12-24T17:02:54.001Z,6.43
2022-12-24T17:05:23.785Z,6.23
2022-12-24T17:07:52.053Z,6.93
2022-12-24T17:10:18.888Z,6.73
2022-12-24T17:12:45.756Z,6.10
2022-12-24T17:15:12.919Z,5.87
2022-12-24T17:17:39.925Z,5.73
2022-12-24T17:20:08.103Z,5.83
2022-12-24T17:22:35.990Z,5.83
2022-12-24T17:25:03.189Z,7.20
2022-12-24T17:27:30.086Z,5.37
2022-12-24T17:29:56.834Z,5.70
2022-12-24T17:32:25.914Z,5.97
2022-12-24T17:34:53.053Z,6.27
2022-12-24T17:37:19.899Z,6.00
2022-12-24T17:39:47.110Z,5.53
2022-12-24T17:42:14.091Z,5.93
2022-12-24T17:44:40.819Z,6.70
2022-12-24T17:47:07.606Z,6.17
2022-12-24T17:49:34.960Z,5.03
2022-12-24T17:52:01.919Z,6.10
2022-12-24T17:54:31.695Z,6.80
2022-12-24T17:57:01.840Z,5.23
2022-12-24T17:59:28.863Z,5.67
2022-12-24T18:01:55.662Z,5.20
2022-12-24T18:04:22.728Z,5.73
2022-12-24T18:06:50.001Z,5.50
2022-12-24T18:09:17.136Z,5.27
2022-12-24T18:11:44.258Z,5.47
2022-12-24T18:14:14.127Z,5.70
2022-12-24T18:16:41.583Z,5.57
2022-12-24T18:19:10.925Z,5.33
2022-12-24T18:21:37.751Z,5.80
2022-12-24T18:24:05.629Z,5.10
2022-12-24T18:26:33.479Z,5.07
2022-12-24T18:29:01.557Z,5.80
2022-12-24T18:31:29.881Z,5.50
2022-12-24T18:33:57.555Z,5.90
2022-12-24T18:36:24.946Z,5.23
2022-12-24T18:38:52.210Z,5.57
2022-12-24T18:41:22.421Z,5.33
2022-12-24T18:43:49.856Z,5.67
2022-12-24T18:46:19.351Z,5.53
2022-12-24T18:48:47.014Z,5.20
2022-12-24T18:51:17.938Z,6.27
2022-12-24T18:53:45.392Z,6.33
2022-12-24T18:56:26.742Z,6.13
2022-12-24T18:58:56.273Z,5.50
2022-12-24T19:01:25.784Z,6.00
2022-12-24T19:03:53.483Z,5.80
2022-12-24T19:06:21.486Z,5.90
2022-12-24T19:08:57.845Z,5.87
2022-12-24T19:11:27.641Z,6.10
2022-12-24T19:13:54.867Z,5.70
2022-12-24T19:16:22.164Z,6.10
2022-12-24T19:18:49.236Z,6.00
2022-12-24T19:21:17.990Z,6.40
2022-12-24T19:23:48.082Z,6.27
2022-12-24T19:26:16.397Z,5.83
2022-12-24T19:28:43.716Z,6.23
2022-12-24T19:31:19.072Z,5.30
2022-12-24T19:33:48.654Z,6.77
2022-12-24T19:36:18.685Z,5.33
2022-12-24T19:38:46.049Z,5.07
2022-12-24T19:41:15.629Z,6.03
2022-12-24T19:43:47.780Z,5.53
2022-12-24T19:46:17.729Z,5.67
2022-12-24T19:48:49.321Z,5.23
2022-12-24T19:51:16.507Z,5.27
2022-12-24T19:53:43.298Z,5.27
2022-12-24T19:56:10.797Z,6.07
2022-12-24T19:58:37.594Z,5.60
2022-12-24T20:01:18.932Z,5.33
2022-12-24T20:03:47.050Z,5.17
2022-12-24T20:06:15.471Z,6.03
2022-12-24T20:08:42.611Z,6.63
2022-12-24T20:11:13.063Z,5.73
2022-12-24T20:13:41.013Z,6.13
2022-12-24T20:16:13.691Z,6.13
2022-12-24T20:18:40.606Z,5.40
2022-12-24T20:21:10.285Z,6.23
2022-12-24T20:23:38.932Z,4.97
2022-12-24T20:26:06.738Z,5.40
2022-12-24T20:28:35.801Z,5.47
2022-12-24T20:31:10.303Z,5.37
2022-12-24T20:33:37.212Z,5.03
2022-12-24T20:36:04.523Z,5.23
2022-12-24T20:38:31.409Z,4.37
2022-12-24T20:40:58.573Z,4.50
2022-12-24T20:43:28.302Z,4.37
2022-12-24T20:45:59.289Z,5.80
2022-12-24T20:48:26.100Z,5.03
2022-12-24T20:50:52.833Z,5.37
2022-12-24T20:53:19.755Z,5.73
2022-12-24T20:55:48.027Z,4.87
2022-12-24T20:58:18.087Z,5.47
2022-12-24T21:00:46.419Z,5.07
2022-12-24T21:03:15.162Z,5.73
2022-12-24T21:05:42.489Z,5.20
2022-12-24T21:08:10.697Z,5.30
2022-12-24T21:10:37.875Z,6.00
2022-12-24T21:13:05.965Z,5.30
2022-12-24T21:15:36.281Z,4.60
2022-12-24T21:18:10.097Z,4.20
2022-12-24T21:20:38.692Z,5.30
2022-12-24T21:23:05.902Z,4.37
2022-12-24T21:25:33.012Z,5.17
2022-12-24T21:27:59.830Z,5.00
2022-12-24T21:30:26.561Z,4.60
2022-12-24T21:32:53.405Z,5.60
2022-12-24T21:35:20.343Z,4.80
2022-12-24T21:37:47.107Z,4.13
2022-12-24T21:40:13.856Z,4.60
2022-12-24T21:42:40.854Z,5.07
2022-12-24T21:45:08.265Z,4.13
2022-12-24T21:47:35.541Z,4.57
2022-12-24T21:50:21.451Z,4.80
2022-12-24T21:53:08.477Z,4.07
2022-12-24T21:55:35.361Z,4.73
2022-12-24T21:58:02.216Z,4.43
2022-12-24T22:00:30.712Z,4.83
2022-12-24T22:02:58.915Z,4.50
2022-12-24T22:05:26.507Z,4.13
2022-12-24T22:08:13.211Z,3.47
2022-12-24T22:10:59.018Z,3.73
2022-12-24T22:13:26.209Z,4.57
2022-12-24T22:15:54.269Z,4.03
2022-12-24T22:18:23.523Z,3.87
2022-12-24T22:20:51.191Z,4.13
2022-12-24T22:23:19.379Z,4.60
2022-12-24T22:25:46.533Z,4.10
2022-12-24T22:28:13.659Z,4.73
2022-12-24T22:30:42.431Z,4.43
2022-12-24T22:33:10.501Z,4.53
2022-12-24T22:35:39.386Z,4.03
2022-12-24T22:38:08.003Z,3.70
2022-12-24T22:40:34.749Z,4.87
2022-12-24T22:43:01.551Z,5.27
2022-12-24T22:45:28.350Z,4.10
2022-12-24T22:47:55.080Z,3.47
2022-12-24T22:50:22.101Z,3.70
2022-12-24T22:52:49.089Z,4.27
2022-12-24T22:55:15.891Z,3.90
2022-12-24T22:57:42.622Z,3.70
2022-12-24T23:00:17.223Z,3.90
2022-12-24T23:02:44.279Z,3.60
2022-12-24T23:05:15.101Z,4.03
2022-12-24T23:07:41.907Z,4.03
2022-12-24T23:10:11.959Z,3.73
2022-12-24T23:12:57.689Z,4.13
2022-12-24T23:15:24.580Z,3.77
2022-12-24T23:17:51.458Z,3.87
2022-12-24T23:20:18.454Z,3.37
2022-12-24T23:22:45.281Z,4.03
2022-12-24T23:25:12.135Z,3.67
2022-12-24T23:27:39.397Z,3.00
2022-12-24T23:30:07.604Z,3.67
2022-12-24T23:32:34.282Z,3.07
2022-12-24T23:35:01.253Z,3.43
2022-12-24T23:37:34.725Z,3.77
2022-12-24T23:40:02.575Z,3.10
2022-12-24T23:42:29.761Z,3.10
2022-12-24T23:44:56.632Z,9.70
2022-12-24T23:47:23.359Z,3.23
2022-12-24T23:49:57.681Z,3.10
2022-12-24T23:52:24.460Z,4.23
2022-12-24T23:54:51.347Z,3.40
2022-12-24T23:57:18.494Z,2.67
2022-12-24T23:59:45.341Z,3.50
